Newmarket, New Hampshire
Current Conditions -  °F | °C
As of 1:58 AM on Saturday 29 Nov 2014 (Local Time) from KPSM Reporting Station
Few Clouds Few Clouds  
Wind Chill: 12°   Ceiling: Unl
Heat Index: 20°   Visibility: 10mi
Dew Point: 15°   Wind: 6mph
Humidity: 82%   Direction: 260°W
Pressure: 30.22"   Gusts: NA
Location:  43.08°N, 70.94°W
Report Text: KPSM 290658Z 26005KT 10SM FEW040 M07/M09 A3022 RMK AO2A SLP238 T10671093
Loading
Personal Weather Stations






























Interactive Weather Map New forecast layout! Learn more

10-Day Weather Forecast

Advertisements
Track Severe Weather on mobile